Terminal Aerodrome Forecast
Issued by NWS

Home | Current Version | Previous Version | Text Only | Print | Product List | Glossary Off
Versions: 1 2 3 4 5 6 7 8 9 10 11 12 13 14 15 16 17 18 19

000
FTUS41 KCLE 242300
TAFFDY
TAF
KFDY 242330Z 2500/2524 07008KT P6SM SCT120 BKN200
     FM250700 12012KT 6SM -RA BR SCT035 OVC060
      TEMPO 2507/2510 4SM -RA BR OVC035
     FM251000 14014KT 4SM -RA BR OVC025 WS015/20050KT
     FM251200 18018G28KT 2SM -RA BR OVC010
     FM251500 22020G32KT P6SM VCSH BKN020 OVC045
     FM251800 25020G32KT P6SM SCT045
     FM252200 25014G20KT P6SM BKN250=

USA.gov is the U.S. government's official web portal to all federal, state and local government web resources and services.